sensor_id;sensor_type;location;lat;lon;timestamp;P1;durP1;ratioP1;P2;durP2;ratioP2
46721;SDS011;32455;43.430;23.136;2024-03-22T00:02:31;8.73;;;6.03;;
46721;SDS011;32455;43.430;23.136;2024-03-22T00:05:17;9.00;;;6.18;;
46721;SDS011;32455;43.430;23.136;2024-03-22T00:08:03;9.80;;;6.40;;
46721;SDS011;32455;43.430;23.136;2024-03-22T00:10:48;6.97;;;6.28;;
46721;SDS011;32455;43.430;23.136;2024-03-22T00:13:33;8.45;;;6.40;;
46721;SDS011;32455;43.430;23.136;2024-03-22T00:16:19;9.25;;;6.45;;
46721;SDS011;32455;43.430;23.136;2024-03-22T00:19:04;9.93;;;6.97;;
46721;SDS011;32455;43.430;23.136;2024-03-22T00:21:50;9.05;;;6.32;;
46721;SDS011;32455;43.430;23.136;2024-03-22T00:24:36;9.88;;;6.45;;
46721;SDS011;32455;43.430;23.136;2024-03-22T00:27:21;9.20;;;6.28;;
46721;SDS011;32455;43.430;23.136;2024-03-22T00:30:07;6.80;;;5.80;;
46721;SDS011;32455;43.430;23.136;2024-03-22T00:32:53;7.05;;;6.13;;
46721;SDS011;32455;43.430;23.136;2024-03-22T00:35:38;7.35;;;5.78;;
46721;SDS011;32455;43.430;23.136;2024-03-22T00:38:24;11.27;;;6.60;;
46721;SDS011;32455;43.430;23.136;2024-03-22T00:41:09;8.38;;;6.72;;
46721;SDS011;32455;43.430;23.136;2024-03-22T00:43:54;12.43;;;6.95;;
46721;SDS011;32455;43.430;23.136;2024-03-22T00:46:38;8.07;;;6.43;;
46721;SDS011;32455;43.430;23.136;2024-03-22T00:49:24;9.52;;;6.65;;
46721;SDS011;32455;43.430;23.136;2024-03-22T00:52:09;9.55;;;6.35;;
46721;SDS011;32455;43.430;23.136;2024-03-22T00:54:55;9.77;;;6.72;;
46721;SDS011;32455;43.430;23.136;2024-03-22T00:57:40;10.13;;;6.40;;
46721;SDS011;32455;43.430;23.136;2024-03-22T01:00:25;8.35;;;6.20;;
46721;SDS011;32455;43.430;23.136;2024-03-22T01:03:11;13.02;;;7.05;;
46721;SDS011;32455;43.430;23.136;2024-03-22T01:05:56;10.05;;;6.80;;
46721;SDS011;32455;43.430;23.136;2024-03-22T01:08:42;7.90;;;6.30;;
46721;SDS011;32455;43.430;23.136;2024-03-22T01:11:27;8.23;;;6.32;;
46721;SDS011;32455;43.430;23.136;2024-03-22T01:14:12;12.38;;;6.53;;
46721;SDS011;32455;43.430;23.136;2024-03-22T01:16:58;9.73;;;6.95;;
46721;SDS011;32455;43.430;23.136;2024-03-22T01:19:43;11.85;;;6.78;;
46721;SDS011;32455;43.430;23.136;2024-03-22T01:22:28;8.93;;;6.15;;
46721;SDS011;32455;43.430;23.136;2024-03-22T01:25:13;11.10;;;7.32;;
46721;SDS011;32455;43.430;23.136;2024-03-22T01:27:58;10.20;;;6.65;;
46721;SDS011;32455;43.430;23.136;2024-03-22T01:30:43;9.75;;;6.82;;
46721;SDS011;32455;43.430;23.136;2024-03-22T01:33:29;8.65;;;6.28;;
46721;SDS011;32455;43.430;23.136;2024-03-22T01:36:14;10.18;;;6.93;;
46721;SDS011;32455;43.430;23.136;2024-03-22T01:38:59;9.48;;;6.78;;
46721;SDS011;32455;43.430;23.136;2024-03-22T01:41:44;9.07;;;6.95;;
46721;SDS011;32455;43.430;23.136;2024-03-22T01:44:31;8.68;;;6.47;;
46721;SDS011;32455;43.430;23.136;2024-03-22T01:47:17;12.20;;;6.75;;
46721;SDS011;32455;43.430;23.136;2024-03-22T01:50:03;9.80;;;6.97;;
46721;SDS011;32455;43.430;23.136;2024-03-22T01:52:48;10.10;;;6.57;;
46721;SDS011;32455;43.430;23.136;2024-03-22T01:55:34;8.90;;;7.20;;
46721;SDS011;32455;43.430;23.136;2024-03-22T01:58:19;9.38;;;6.75;;
46721;SDS011;32455;43.430;23.136;2024-03-22T02:01:04;9.68;;;6.43;;
46721;SDS011;32455;43.430;23.136;2024-03-22T02:03:50;10.25;;;6.65;;
46721;SDS011;32455;43.430;23.136;2024-03-22T02:06:35;8.43;;;6.30;;
46721;SDS011;32455;43.430;23.136;2024-03-22T02:09:21;11.40;;;7.00;;
46721;SDS011;32455;43.430;23.136;2024-03-22T02:12:07;8.77;;;6.55;;
46721;SDS011;32455;43.430;23.136;2024-03-22T02:14:53;11.45;;;7.28;;
46721;SDS011;32455;43.430;23.136;2024-03-22T02:17:43;10.82;;;6.40;;
46721;SDS011;32455;43.430;23.136;2024-03-22T02:20:28;8.00;;;6.25;;
46721;SDS011;32455;43.430;23.136;2024-03-22T02:23:13;9.18;;;7.05;;
46721;SDS011;32455;43.430;23.136;2024-03-22T02:25:57;7.93;;;6.70;;
46721;SDS011;32455;43.430;23.136;2024-03-22T02:28:43;8.93;;;7.03;;
46721;SDS011;32455;43.430;23.136;2024-03-22T02:31:28;9.68;;;6.60;;
46721;SDS011;32455;43.430;23.136;2024-03-22T02:34:13;9.23;;;6.97;;
46721;SDS011;32455;43.430;23.136;2024-03-22T02:36:58;10.98;;;6.57;;
46721;SDS011;32455;43.430;23.136;2024-03-22T02:39:44;10.00;;;6.65;;
46721;SDS011;32455;43.430;23.136;2024-03-22T02:42:29;9.68;;;6.28;;
46721;SDS011;32455;43.430;23.136;2024-03-22T02:45:14;10.30;;;7.35;;
46721;SDS011;32455;43.430;23.136;2024-03-22T02:48:00;10.75;;;7.50;;
46721;SDS011;32455;43.430;23.136;2024-03-22T02:50:45;8.75;;;6.93;;
46721;SDS011;32455;43.430;23.136;2024-03-22T02:53:30;9.93;;;7.20;;
46721;SDS011;32455;43.430;23.136;2024-03-22T02:56:15;8.38;;;6.70;;
46721;SDS011;32455;43.430;23.136;2024-03-22T02:59:00;10.60;;;7.75;;
46721;SDS011;32455;43.430;23.136;2024-03-22T03:01:46;9.85;;;6.75;;
46721;SDS011;32455;43.430;23.136;2024-03-22T03:04:31;7.00;;;6.30;;
46721;SDS011;32455;43.430;23.136;2024-03-22T03:07:17;8.32;;;6.93;;
46721;SDS011;32455;43.430;23.136;2024-03-22T03:10:02;10.18;;;6.90;;
46721;SDS011;32455;43.430;23.136;2024-03-22T03:12:48;11.82;;;8.30;;
46721;SDS011;32455;43.430;23.136;2024-03-22T03:15:33;13.07;;;9.52;;
46721;SDS011;32455;43.430;23.136;2024-03-22T03:18:18;12.20;;;7.03;;
46721;SDS011;32455;43.430;23.136;2024-03-22T03:21:04;8.57;;;6.80;;
46721;SDS011;32455;43.430;23.136;2024-03-22T03:23:49;7.95;;;6.13;;
46721;SDS011;32455;43.430;23.136;2024-03-22T03:26:35;9.85;;;6.57;;
46721;SDS011;32455;43.430;23.136;2024-03-22T03:29:20;10.25;;;6.93;;
46721;SDS011;32455;43.430;23.136;2024-03-22T03:32:06;12.77;;;7.63;;
46721;SDS011;32455;43.430;23.136;2024-03-22T03:34:52;9.23;;;7.13;;
46721;SDS011;32455;43.430;23.136;2024-03-22T03:37:38;9.88;;;7.80;;
46721;SDS011;32455;43.430;23.136;2024-03-22T03:40:23;9.48;;;8.07;;
46721;SDS011;32455;43.430;23.136;2024-03-22T03:43:09;13.30;;;8.77;;
46721;SDS011;32455;43.430;23.136;2024-03-22T03:45:55;13.43;;;9.77;;
46721;SDS011;32455;43.430;23.136;2024-03-22T03:48:40;10.38;;;8.32;;
46721;SDS011;32455;43.430;23.136;2024-03-22T03:51:26;10.50;;;8.57;;
46721;SDS011;32455;43.430;23.136;2024-03-22T03:54:11;9.18;;;7.78;;
46721;SDS011;32455;43.430;23.136;2024-03-22T03:56:56;10.75;;;7.93;;
46721;SDS011;32455;43.430;23.136;2024-03-22T03:59:40;7.88;;;7.07;;
46721;SDS011;32455;43.430;23.136;2024-03-22T04:02:25;7.97;;;6.63;;
46721;SDS011;32455;43.430;23.136;2024-03-22T04:05:11;8.30;;;6.97;;
46721;SDS011;32455;43.430;23.136;2024-03-22T04:07:56;9.43;;;7.22;;
46721;SDS011;32455;43.430;23.136;2024-03-22T04:10:41;8.70;;;6.93;;
46721;SDS011;32455;43.430;23.136;2024-03-22T04:13:36;9.65;;;7.47;;
46721;SDS011;32455;43.430;23.136;2024-03-22T04:16:22;11.30;;;7.30;;
46721;SDS011;32455;43.430;23.136;2024-03-22T04:19:07;8.15;;;6.60;;
46721;SDS011;32455;43.430;23.136;2024-03-22T04:21:52;8.85;;;6.70;;
46721;SDS011;32455;43.430;23.136;2024-03-22T04:24:38;9.70;;;7.30;;
46721;SDS011;32455;43.430;23.136;2024-03-22T04:27:23;8.95;;;6.90;;
46721;SDS011;32455;43.430;23.136;2024-03-22T04:30:09;11.73;;;7.95;;
46721;SDS011;32455;43.430;23.136;2024-03-22T04:32:54;25.10;;;14.38;;
46721;SDS011;32455;43.430;23.136;2024-03-22T04:35:44;19.20;;;13.65;;
46721;SDS011;32455;43.430;23.136;2024-03-22T04:38:30;14.45;;;11.68;;
46721;SDS011;32455;43.430;23.136;2024-03-22T04:41:16;11.05;;;8.48;;
46721;SDS011;32455;43.430;23.136;2024-03-22T04:44:01;10.70;;;8.85;;
46721;SDS011;32455;43.430;23.136;2024-03-22T04:46:46;10.38;;;7.68;;
46721;SDS011;32455;43.430;23.136;2024-03-22T04:49:32;13.73;;;8.50;;
46721;SDS011;32455;43.430;23.136;2024-03-22T04:52:17;7.63;;;6.65;;
46721;SDS011;32455;43.430;23.136;2024-03-22T04:55:03;11.13;;;6.55;;
46721;SDS011;32455;43.430;23.136;2024-03-22T04:57:49;8.68;;;6.15;;
46721;SDS011;32455;43.430;23.136;2024-03-22T05:00:36;12.38;;;6.95;;
46721;SDS011;32455;43.430;23.136;2024-03-22T05:03:21;8.95;;;7.20;;
46721;SDS011;32455;43.430;23.136;2024-03-22T05:06:06;11.13;;;7.13;;
46721;SDS011;32455;43.430;23.136;2024-03-22T05:08:51;8.05;;;6.30;;
46721;SDS011;32455;43.430;23.136;2024-03-22T05:11:36;7.68;;;6.10;;
46721;SDS011;32455;43.430;23.136;2024-03-22T05:14:22;9.88;;;6.75;;
46721;SDS011;32455;43.430;23.136;2024-03-22T05:17:07;9.38;;;6.90;;
46721;SDS011;32455;43.430;23.136;2024-03-22T05:19:52;11.75;;;7.63;;
46721;SDS011;32455;43.430;23.136;2024-03-22T05:22:38;8.25;;;6.20;;
46721;SDS011;32455;43.430;23.136;2024-03-22T05:25:24;10.98;;;7.55;;
46721;SDS011;32455;43.430;23.136;2024-03-22T05:28:10;11.43;;;7.50;;
46721;SDS011;32455;43.430;23.136;2024-03-22T05:30:55;10.48;;;7.55;;
46721;SDS011;32455;43.430;23.136;2024-03-22T05:33:41;11.93;;;7.50;;
46721;SDS011;32455;43.430;23.136;2024-03-22T05:36:26;13.27;;;7.65;;
46721;SDS011;32455;43.430;23.136;2024-03-22T05:39:12;8.80;;;6.82;;
46721;SDS011;32455;43.430;23.136;2024-03-22T05:41:58;9.73;;;7.30;;
46721;SDS011;32455;43.430;23.136;2024-03-22T05:44:44;8.32;;;7.28;;
46721;SDS011;32455;43.430;23.136;2024-03-22T05:47:29;14.15;;;7.72;;
46721;SDS011;32455;43.430;23.136;2024-03-22T05:50:15;8.98;;;7.53;;
46721;SDS011;32455;43.430;23.136;2024-03-22T05:52:59;13.15;;;8.15;;
46721;SDS011;32455;43.430;23.136;2024-03-22T05:55:45;11.27;;;7.20;;
46721;SDS011;32455;43.430;23.136;2024-03-22T05:58:30;10.45;;;7.65;;
46721;SDS011;32455;43.430;23.136;2024-03-22T06:01:16;12.25;;;8.32;;
46721;SDS011;32455;43.430;23.136;2024-03-22T06:04:01;10.82;;;8.27;;
46721;SDS011;32455;43.430;23.136;2024-03-22T06:06:47;10.38;;;8.70;;
46721;SDS011;32455;43.430;23.136;2024-03-22T06:09:32;12.68;;;9.30;;
46721;SDS011;32455;43.430;23.136;2024-03-22T06:12:30;13.52;;;8.85;;
46721;SDS011;32455;43.430;23.136;2024-03-22T06:15:16;10.60;;;8.50;;
46721;SDS011;32455;43.430;23.136;2024-03-22T06:18:01;12.02;;;8.18;;
46721;SDS011;32455;43.430;23.136;2024-03-22T06:20:46;12.40;;;8.65;;
46721;SDS011;32455;43.430;23.136;2024-03-22T06:23:32;12.18;;;8.82;;
46721;SDS011;32455;43.430;23.136;2024-03-22T06:26:17;10.10;;;8.73;;
46721;SDS011;32455;43.430;23.136;2024-03-22T06:29:03;11.13;;;8.43;;
46721;SDS011;32455;43.430;23.136;2024-03-22T06:31:48;13.27;;;9.63;;
46721;SDS011;32455;43.430;23.136;2024-03-22T06:34:34;13.32;;;10.07;;
46721;SDS011;32455;43.430;23.136;2024-03-22T06:37:20;11.48;;;9.43;;
46721;SDS011;32455;43.430;23.136;2024-03-22T06:40:05;11.10;;;8.80;;
46721;SDS011;32455;43.430;23.136;2024-03-22T06:42:52;10.50;;;9.02;;
46721;SDS011;32455;43.430;23.136;2024-03-22T06:45:37;10.45;;;9.18;;
46721;SDS011;32455;43.430;23.136;2024-03-22T06:48:22;11.40;;;9.57;;
46721;SDS011;32455;43.430;23.136;2024-03-22T06:51:08;11.40;;;9.25;;
46721;SDS011;32455;43.430;23.136;2024-03-22T06:53:53;11.90;;;8.82;;
46721;SDS011;32455;43.430;23.136;2024-03-22T06:56:39;10.05;;;8.52;;
46721;SDS011;32455;43.430;23.136;2024-03-22T06:59:26;11.38;;;7.93;;
46721;SDS011;32455;43.430;23.136;2024-03-22T07:02:11;9.80;;;8.48;;
46721;SDS011;32455;43.430;23.136;2024-03-22T07:04:58;12.32;;;8.82;;
46721;SDS011;32455;43.430;23.136;2024-03-22T07:07:43;13.55;;;9.40;;
46721;SDS011;32455;43.430;23.136;2024-03-22T07:10:28;13.07;;;8.13;;
46721;SDS011;32455;43.430;23.136;2024-03-22T07:13:15;9.02;;;7.65;;
46721;SDS011;32455;43.430;23.136;2024-03-22T07:16:01;10.60;;;7.78;;
46721;SDS011;32455;43.430;23.136;2024-03-22T07:18:46;9.63;;;8.07;;
46721;SDS011;32455;43.430;23.136;2024-03-22T07:21:33;8.02;;;6.85;;
46721;SDS011;32455;43.430;23.136;2024-03-22T07:24:18;11.77;;;8.02;;
46721;SDS011;32455;43.430;23.136;2024-03-22T07:27:04;7.72;;;6.60;;
46721;SDS011;32455;43.430;23.136;2024-03-22T07:29:48;8.20;;;7.13;;
46721;SDS011;32455;43.430;23.136;2024-03-22T07:32:33;11.48;;;8.02;;
46721;SDS011;32455;43.430;23.136;2024-03-22T07:35:19;9.35;;;6.60;;
46721;SDS011;32455;43.430;23.136;2024-03-22T07:38:04;7.45;;;6.68;;
46721;SDS011;32455;43.430;23.136;2024-03-22T07:40:49;9.23;;;6.65;;
46721;SDS011;32455;43.430;23.136;2024-03-22T07:43:35;8.93;;;7.43;;
46721;SDS011;32455;43.430;23.136;2024-03-22T07:46:20;9.07;;;6.70;;
46721;SDS011;32455;43.430;23.136;2024-03-22T07:49:05;7.70;;;6.40;;
46721;SDS011;32455;43.430;23.136;2024-03-22T07:51:51;8.65;;;7.80;;
46721;SDS011;32455;43.430;23.136;2024-03-22T07:54:38;8.88;;;7.03;;
46721;SDS011;32455;43.430;23.136;2024-03-22T07:57:23;6.47;;;5.15;;
46721;SDS011;32455;43.430;23.136;2024-03-22T08:00:09;8.00;;;6.20;;
46721;SDS011;32455;43.430;23.136;2024-03-22T08:02:55;6.90;;;6.20;;
46721;SDS011;32455;43.430;23.136;2024-03-22T08:05:40;8.27;;;7.10;;
46721;SDS011;32455;43.430;23.136;2024-03-22T08:08:26;5.68;;;5.10;;
46721;SDS011;32455;43.430;23.136;2024-03-22T08:11:11;6.88;;;5.30;;
46721;SDS011;32455;43.430;23.136;2024-03-22T08:13:57;5.53;;;4.90;;
46721;SDS011;32455;43.430;23.136;2024-03-22T08:16:46;6.00;;;5.25;;
46721;SDS011;32455;43.430;23.136;2024-03-22T08:19:32;5.13;;;4.63;;
46721;SDS011;32455;43.430;23.136;2024-03-22T08:22:18;6.13;;;5.50;;
46721;SDS011;32455;43.430;23.136;2024-03-22T08:25:03;5.80;;;5.20;;
46721;SDS011;32455;43.430;23.136;2024-03-22T08:27:49;5.75;;;5.03;;
46721;SDS011;32455;43.430;23.136;2024-03-22T08:30:37;5.80;;;4.43;;
46721;SDS011;32455;43.430;23.136;2024-03-22T08:33:22;5.93;;;4.72;;
46721;SDS011;32455;43.430;23.136;2024-03-22T08:36:07;6.40;;;5.10;;
46721;SDS011;32455;43.430;23.136;2024-03-22T08:38:52;5.20;;;4.70;;
46721;SDS011;32455;43.430;23.136;2024-03-22T08:41:37;5.43;;;4.85;;
46721;SDS011;32455;43.430;23.136;2024-03-22T08:44:23;6.05;;;4.80;;
46721;SDS011;32455;43.430;23.136;2024-03-22T08:47:09;5.90;;;5.20;;
46721;SDS011;32455;43.430;23.136;2024-03-22T08:49:55;4.97;;;4.47;;
46721;SDS011;32455;43.430;23.136;2024-03-22T08:52:42;7.25;;;4.93;;
46721;SDS011;32455;43.430;23.136;2024-03-22T08:55:27;5.90;;;4.72;;
46721;SDS011;32455;43.430;23.136;2024-03-22T08:58:14;5.85;;;4.85;;
46721;SDS011;32455;43.430;23.136;2024-03-22T09:00:59;8.95;;;5.50;;
46721;SDS011;32455;43.430;23.136;2024-03-22T09:03:45;6.00;;;4.75;;
46721;SDS011;32455;43.430;23.136;2024-03-22T09:06:30;6.15;;;4.68;;
46721;SDS011;32455;43.430;23.136;2024-03-22T09:09:16;5.75;;;4.72;;
46721;SDS011;32455;43.430;23.136;2024-03-22T09:12:00;4.93;;;4.43;;
46721;SDS011;32455;43.430;23.136;2024-03-22T09:14:45;6.03;;;4.47;;
46721;SDS011;32455;43.430;23.136;2024-03-22T09:17:31;5.32;;;4.82;;
46721;SDS011;32455;43.430;23.136;2024-03-22T09:20:16;13.55;;;4.90;;
46721;SDS011;32455;43.430;23.136;2024-03-22T09:23:01;8.90;;;5.35;;
46721;SDS011;32455;43.430;23.136;2024-03-22T09:25:46;6.70;;;5.22;;
46721;SDS011;32455;43.430;23.136;2024-03-22T09:28:34;6.45;;;4.78;;
46721;SDS011;32455;43.430;23.136;2024-03-22T09:31:19;7.55;;;4.85;;
46721;SDS011;32455;43.430;23.136;2024-03-22T09:34:05;4.97;;;4.47;;
46721;SDS011;32455;43.430;23.136;2024-03-22T09:36:51;7.03;;;4.80;;
46721;SDS011;32455;43.430;23.136;2024-03-22T09:39:36;6.30;;;4.85;;
46721;SDS011;32455;43.430;23.136;2024-03-22T09:42:22;6.28;;;5.05;;
46721;SDS011;32455;43.430;23.136;2024-03-22T09:45:10;6.68;;;4.97;;
46721;SDS011;32455;43.430;23.136;2024-03-22T09:47:56;5.00;;;4.47;;
46721;SDS011;32455;43.430;23.136;2024-03-22T09:50:43;7.93;;;4.55;;
46721;SDS011;32455;43.430;23.136;2024-03-22T09:53:30;6.95;;;4.97;;
46721;SDS011;32455;43.430;23.136;2024-03-22T09:56:17;6.47;;;4.72;;
46721;SDS011;32455;43.430;23.136;2024-03-22T09:59:06;7.40;;;4.72;;
46721;SDS011;32455;43.430;23.136;2024-03-22T10:01:55;6.25;;;4.63;;
46721;SDS011;32455;43.430;23.136;2024-03-22T10:04:43;8.55;;;5.35;;
46721;SDS011;32455;43.430;23.136;2024-03-22T10:07:28;5.63;;;4.55;;
46721;SDS011;32455;43.430;23.136;2024-03-22T10:10:14;7.20;;;4.47;;
46721;SDS011;32455;43.430;23.136;2024-03-22T10:13:06;7.30;;;4.40;;
46721;SDS011;32455;43.430;23.136;2024-03-22T10:15:51;4.20;;;3.80;;
46721;SDS011;32455;43.430;23.136;2024-03-22T10:18:37;6.25;;;4.38;;
46721;SDS011;32455;43.430;23.136;2024-03-22T10:21:22;5.00;;;4.50;;
46721;SDS011;32455;43.430;23.136;2024-03-22T10:24:08;5.95;;;4.35;;
46721;SDS011;32455;43.430;23.136;2024-03-22T10:26:54;5.40;;;4.10;;
46721;SDS011;32455;43.430;23.136;2024-03-22T10:29:40;5.25;;;4.75;;
46721;SDS011;32455;43.430;23.136;2024-03-22T10:32:26;8.35;;;4.45;;
46721;SDS011;32455;43.430;23.136;2024-03-22T10:35:13;7.30;;;4.00;;
46721;SDS011;32455;43.430;23.136;2024-03-22T10:37:59;7.53;;;4.00;;
46721;SDS011;32455;43.430;23.136;2024-03-22T10:40:46;5.40;;;4.20;;
46721;SDS011;32455;43.430;23.136;2024-03-22T10:43:32;5.25;;;4.72;;
46721;SDS011;32455;43.430;23.136;2024-03-22T10:46:17;6.57;;;4.10;;
46721;SDS011;32455;43.430;23.136;2024-03-22T10:49:05;4.20;;;3.80;;
46721;SDS011;32455;43.430;23.136;2024-03-22T10:51:58;7.20;;;5.07;;
46721;SDS011;32455;43.430;23.136;2024-03-22T10:54:46;7.10;;;4.47;;
46721;SDS011;32455;43.430;23.136;2024-03-22T10:57:32;5.80;;;4.40;;
46721;SDS011;32455;43.430;23.136;2024-03-22T11:00:30;4.32;;;3.83;;
46721;SDS011;32455;43.430;23.136;2024-03-22T11:03:19;6.18;;;4.38;;
46721;SDS011;32455;43.430;23.136;2024-03-22T11:06:07;6.25;;;4.45;;
46721;SDS011;32455;43.430;23.136;2024-03-22T11:08:53;4.90;;;3.97;;
46721;SDS011;32455;43.430;23.136;2024-03-22T11:11:38;6.70;;;4.78;;
46721;SDS011;32455;43.430;23.136;2024-03-22T11:14:26;6.85;;;4.20;;
46721;SDS011;32455;43.430;23.136;2024-03-22T11:17:11;4.22;;;3.80;;
46721;SDS011;32455;43.430;23.136;2024-03-22T11:19:56;4.57;;;4.07;;
46721;SDS011;32455;43.430;23.136;2024-03-22T11:22:41;6.45;;;3.65;;
46721;SDS011;32455;43.430;23.136;2024-03-22T11:25:26;5.47;;;4.28;;
46721;SDS011;32455;43.430;23.136;2024-03-22T11:28:11;4.70;;;3.80;;
46721;SDS011;32455;43.430;23.136;2024-03-22T11:30:56;5.38;;;3.92;;
46721;SDS011;32455;43.430;23.136;2024-03-22T11:33:43;6.35;;;4.00;;
46721;SDS011;32455;43.430;23.136;2024-03-22T11:36:29;7.28;;;3.70;;
46721;SDS011;32455;43.430;23.136;2024-03-22T11:39:14;4.47;;;3.90;;
46721;SDS011;32455;43.430;23.136;2024-03-22T11:41:59;4.25;;;3.85;;
46721;SDS011;32455;43.430;23.136;2024-03-22T11:44:46;4.53;;;3.70;;
46721;SDS011;32455;43.430;23.136;2024-03-22T11:47:32;6.07;;;3.72;;
46721;SDS011;32455;43.430;23.136;2024-03-22T11:50:19;5.88;;;3.70;;
46721;SDS011;32455;43.430;23.136;2024-03-22T11:53:04;5.05;;;3.92;;
46721;SDS011;32455;43.430;23.136;2024-03-22T11:55:50;4.05;;;3.55;;
46721;SDS011;32455;43.430;23.136;2024-03-22T11:58:36;5.07;;;4.50;;
46721;SDS011;32455;43.430;23.136;2024-03-22T12:01:22;5.03;;;4.18;;
46721;SDS011;32455;43.430;23.136;2024-03-22T12:04:07;5.78;;;4.95;;
46721;SDS011;32455;43.430;23.136;2024-03-22T12:06:59;4.85;;;4.28;;
46721;SDS011;32455;43.430;23.136;2024-03-22T12:09:45;3.63;;;3.33;;
46721;SDS011;32455;43.430;23.136;2024-03-22T12:12:31;5.20;;;3.88;;
46721;SDS011;32455;43.430;23.136;2024-03-22T12:15:16;3.80;;;3.50;;
46721;SDS011;32455;43.430;23.136;2024-03-22T12:18:02;5.15;;;3.25;;
46721;SDS011;32455;43.430;23.136;2024-03-22T12:20:47;4.55;;;3.58;;
46721;SDS011;32455;43.430;23.136;2024-03-22T12:23:33;7.05;;;4.10;;
46721;SDS011;32455;43.430;23.136;2024-03-22T12:26:18;3.90;;;3.50;;
46721;SDS011;32455;43.430;23.136;2024-03-22T12:29:04;5.70;;;3.58;;
46721;SDS011;32455;43.430;23.136;2024-03-22T12:31:49;4.15;;;3.45;;
46721;SDS011;32455;43.430;23.136;2024-03-22T12:34:35;4.65;;;3.17;;
46721;SDS011;32455;43.430;23.136;2024-03-22T12:37:21;3.97;;;3.40;;
46721;SDS011;32455;43.430;23.136;2024-03-22T12:40:07;5.47;;;4.38;;
46721;SDS011;32455;43.430;23.136;2024-03-22T12:42:56;5.25;;;4.75;;
46721;SDS011;32455;43.430;23.136;2024-03-22T12:45:42;7.53;;;4.45;;
46721;SDS011;32455;43.430;23.136;2024-03-22T12:48:27;8.88;;;4.25;;
46721;SDS011;32455;43.430;23.136;2024-03-22T12:51:13;5.18;;;4.35;;
46721;SDS011;32455;43.430;23.136;2024-03-22T12:53:59;4.35;;;3.92;;
46721;SDS011;32455;43.430;23.136;2024-03-22T12:56:45;5.47;;;4.72;;
46721;SDS011;32455;43.430;23.136;2024-03-22T12:59:30;6.25;;;4.25;;
46721;SDS011;32455;43.430;23.136;2024-03-22T13:02:16;4.50;;;4.10;;
46721;SDS011;32455;43.430;23.136;2024-03-22T13:05:01;4.97;;;4.38;;
46721;SDS011;32455;43.430;23.136;2024-03-22T13:07:47;5.43;;;4.22;;
46721;SDS011;32455;43.430;23.136;2024-03-22T13:10:32;4.22;;;3.67;;
46721;SDS011;32455;43.430;23.136;2024-03-22T13:13:18;4.88;;;4.30;;
46721;SDS011;32455;43.430;23.136;2024-03-22T13:16:04;4.55;;;4.03;;
46721;SDS011;32455;43.430;23.136;2024-03-22T13:18:48;4.28;;;3.88;;
46721;SDS011;32455;43.430;23.136;2024-03-22T13:21:33;4.10;;;3.70;;
46721;SDS011;32455;43.430;23.136;2024-03-22T13:24:19;5.15;;;3.50;;
46721;SDS011;32455;43.430;23.136;2024-03-22T13:27:04;5.05;;;4.53;;
46721;SDS011;32455;43.430;23.136;2024-03-22T13:29:50;7.15;;;4.60;;
46721;SDS011;32455;43.430;23.136;2024-03-22T13:32:36;4.35;;;3.95;;
46721;SDS011;32455;43.430;23.136;2024-03-22T13:35:22;6.57;;;4.28;;
46721;SDS011;32455;43.430;23.136;2024-03-22T13:38:07;3.95;;;3.60;;
46721;SDS011;32455;43.430;23.136;2024-03-22T13:40:58;4.88;;;3.92;;
46721;SDS011;32455;43.430;23.136;2024-03-22T13:43:44;4.00;;;3.60;;
46721;SDS011;32455;43.430;23.136;2024-03-22T13:46:29;4.32;;;3.83;;
46721;SDS011;32455;43.430;23.136;2024-03-22T13:49:15;4.10;;;3.70;;
46721;SDS011;32455;43.430;23.136;2024-03-22T13:52:02;5.00;;;4.25;;
46721;SDS011;32455;43.430;23.136;2024-03-22T13:54:49;4.50;;;4.10;;
46721;SDS011;32455;43.430;23.136;2024-03-22T13:57:34;4.50;;;3.65;;
46721;SDS011;32455;43.430;23.136;2024-03-22T14:00:20;4.18;;;3.78;;
46721;SDS011;32455;43.430;23.136;2024-03-22T14:03:05;5.20;;;4.18;;
46721;SDS011;32455;43.430;23.136;2024-03-22T14:05:51;8.15;;;4.10;;
46721;SDS011;32455;43.430;23.136;2024-03-22T14:08:36;4.97;;;4.28;;
46721;SDS011;32455;43.430;23.136;2024-03-22T14:11:22;4.80;;;3.88;;
46721;SDS011;32455;43.430;23.136;2024-03-22T14:14:07;4.20;;;3.80;;
46721;SDS011;32455;43.430;23.136;2024-03-22T14:16:53;4.75;;;3.80;;
46721;SDS011;32455;43.430;23.136;2024-03-22T14:19:39;4.45;;;4.00;;
46721;SDS011;32455;43.430;23.136;2024-03-22T14:22:24;4.40;;;3.83;;
46721;SDS011;32455;43.430;23.136;2024-03-22T14:25:09;4.93;;;3.92;;
46721;SDS011;32455;43.430;23.136;2024-03-22T14:27:55;4.63;;;4.13;;
46721;SDS011;32455;43.430;23.136;2024-03-22T14:30:41;4.15;;;3.75;;
46721;SDS011;32455;43.430;23.136;2024-03-22T14:33:27;4.03;;;3.63;;
46721;SDS011;32455;43.430;23.136;2024-03-22T14:36:12;4.32;;;3.92;;
46721;SDS011;32455;43.430;23.136;2024-03-22T14:38:57;4.97;;;3.92;;
46721;SDS011;32455;43.430;23.136;2024-03-22T14:41:43;4.93;;;4.15;;
46721;SDS011;32455;43.430;23.136;2024-03-22T14:44:28;4.28;;;3.88;;
46721;SDS011;32455;43.430;23.136;2024-03-22T14:47:14;5.45;;;3.80;;
46721;SDS011;32455;43.430;23.136;2024-03-22T14:50:00;4.57;;;3.78;;
46721;SDS011;32455;43.430;23.136;2024-03-22T14:52:47;4.97;;;4.40;;
46721;SDS011;32455;43.430;23.136;2024-03-22T14:55:33;8.10;;;4.43;;
46721;SDS011;32455;43.430;23.136;2024-03-22T14:58:21;5.75;;;3.72;;
46721;SDS011;32455;43.430;23.136;2024-03-22T15:01:06;5.90;;;4.15;;
46721;SDS011;32455;43.430;23.136;2024-03-22T15:03:53;6.45;;;4.63;;
46721;SDS011;32455;43.430;23.136;2024-03-22T15:06:37;7.28;;;4.55;;
46721;SDS011;32455;43.430;23.136;2024-03-22T15:09:23;10.70;;;4.47;;
46721;SDS011;32455;43.430;23.136;2024-03-22T15:12:09;6.35;;;4.20;;
46721;SDS011;32455;43.430;23.136;2024-03-22T15:14:54;4.22;;;3.72;;
46721;SDS011;32455;43.430;23.136;2024-03-22T15:17:39;5.63;;;4.10;;
46721;SDS011;32455;43.430;23.136;2024-03-22T15:20:25;14.07;;;9.80;;
46721;SDS011;32455;43.430;23.136;2024-03-22T15:23:14;8.13;;;4.75;;
46721;SDS011;32455;43.430;23.136;2024-03-22T15:25:59;6.90;;;5.00;;
46721;SDS011;32455;43.430;23.136;2024-03-22T15:28:45;5.45;;;4.63;;
46721;SDS011;32455;43.430;23.136;2024-03-22T15:31:30;5.32;;;4.82;;
46721;SDS011;32455;43.430;23.136;2024-03-22T15:34:16;5.60;;;4.75;;
46721;SDS011;32455;43.430;23.136;2024-03-22T15:37:01;5.78;;;4.30;;
46721;SDS011;32455;43.430;23.136;2024-03-22T15:39:47;5.15;;;4.15;;
46721;SDS011;32455;43.430;23.136;2024-03-22T15:42:32;5.78;;;3.97;;
46721;SDS011;32455;43.430;23.136;2024-03-22T15:45:17;5.05;;;4.38;;
46721;SDS011;32455;43.430;23.136;2024-03-22T15:48:03;5.60;;;5.10;;
46721;SDS011;32455;43.430;23.136;2024-03-22T15:50:52;9.93;;;6.43;;
46721;SDS011;32455;43.430;23.136;2024-03-22T15:53:37;5.90;;;4.70;;
46721;SDS011;32455;43.430;23.136;2024-03-22T15:56:23;5.55;;;5.00;;
46721;SDS011;32455;43.430;23.136;2024-03-22T15:59:08;5.38;;;4.05;;
46721;SDS011;32455;43.430;23.136;2024-03-22T16:01:54;7.40;;;3.97;;
46721;SDS011;32455;43.430;23.136;2024-03-22T16:04:39;4.13;;;3.63;;
46721;SDS011;32455;43.430;23.136;2024-03-22T16:07:24;4.82;;;4.15;;
46721;SDS011;32455;43.430;23.136;2024-03-22T16:10:10;4.55;;;3.92;;
46721;SDS011;32455;43.430;23.136;2024-03-22T16:12:56;11.43;;;4.30;;
46721;SDS011;32455;43.430;23.136;2024-03-22T16:15:45;7.38;;;4.32;;
46721;SDS011;32455;43.430;23.136;2024-03-22T16:18:31;11.18;;;4.40;;
46721;SDS011;32455;43.430;23.136;2024-03-22T16:21:18;5.22;;;3.97;;